Time;durP1;ratioP1;P1;durP2;ratioP2;P2;SDS_P1;SDS_P2;PMS_P1;PMS_P2;Temp;Humidity;BMP_temperature;BMP_pressure;BME280_temperature;BME280_humidity;BME280_pressure;Samples;Min_cycle;Max_cycle;Signal;HPM_P1;HPM_P2
2021/08/30 00:02:01;;;;;;;19.17;9.87;;;15.30;97.30;;;;;;5000426;28;20812;-89
2021/08/30 00:04:26;;;;;;;19.10;9.80;;;15.30;97.30;;;;;;4999984;28;20219;-88
2021/08/30 00:06:52;;;;;;;21.13;9.60;;;15.30;97.30;;;;;;4999317;28;20169;-88
2021/08/30 00:09:17;;;;;;;17.93;9.23;;;15.30;97.30;;;;;;4999194;28;20177;-90
2021/08/30 00:11:43;;;;;;;22.03;10.10;;;15.30;97.30;;;;;;5014762;28;20184;-86
2021/08/30 00:14:08;;;;;;;19.77;9.50;;;15.30;97.30;;;;;;4997462;28;20204;-88
2021/08/30 00:16:34;;;;;;;16.37;9.17;;;15.30;97.30;;;;;;4998930;28;20770;-89
2021/08/30 00:18:59;;;;;;;20.40;10.37;;;15.30;97.30;;;;;;5001454;28;20180;-87
2021/08/30 00:21:25;;;;;;;24.80;9.23;;;15.40;97.30;;;;;;4990092;28;20178;-87
2021/08/30 00:23:50;;;;;;;22.77;10.73;;;15.40;97.30;;;;;;4997825;28;20259;-89
2021/08/30 00:26:16;;;;;;;19.17;10.07;;;15.40;97.30;;;;;;5000431;28;20255;-88
2021/08/30 00:28:42;;;;;;;17.40;9.00;;;15.40;97.30;;;;;;5000272;28;20272;-87
2021/08/30 00:31:07;;;;;;;23.67;11.00;;;15.40;97.30;;;;;;5000034;28;20188;-87
2021/08/30 00:33:33;;;;;;;21.27;10.70;;;15.40;97.30;;;;;;5000175;28;20244;-87
2021/08/30 00:35:58;;;;;;;21.80;9.87;;;15.40;97.30;;;;;;5000505;28;20185;-88
2021/08/30 00:38:25;;;;;;;26.93;11.70;;;15.40;97.30;;;;;;5001263;28;20208;-88
2021/08/30 00:40:50;;;;;;;19.47;9.37;;;15.40;97.30;;;;;;5017879;28;20192;-88
2021/08/30 00:43:16;;;;;;;16.93;9.17;;;15.40;97.30;;;;;;5001196;28;20432;-89
2021/08/30 00:45:41;;;;;;;17.40;9.30;;;15.40;97.30;;;;;;5000878;28;20169;-87
2021/08/30 00:48:07;;;;;;;16.63;8.00;;;15.40;97.30;;;;;;5000524;28;20632;-87
2021/08/30 00:50:33;;;;;;;15.20;6.30;;;15.40;97.30;;;;;;4993571;28;20189;-87
2021/08/30 00:52:58;;;;;;;16.20;7.00;;;15.40;97.30;;;;;;4980806;28;20197;-88
2021/08/30 00:55:25;;;;;;;12.27;6.70;;;15.40;97.30;;;;;;4980545;28;20182;-87
2021/08/30 00:57:51;;;;;;;10.10;5.77;;;15.40;97.30;;;;;;4980332;28;20292;-89
2021/08/30 01:00:17;;;;;;;9.60;5.57;;;15.40;97.30;;;;;;4980034;28;20471;-87
2021/08/30 01:02:43;;;;;;;8.57;5.50;;;15.40;97.30;;;;;;4997130;28;20194;-87
2021/08/30 01:05:14;;;;;;;9.57;5.57;;;15.40;97.30;;;;;;4979912;28;20778;-87
2021/08/30 01:07:52;;;;;;;11.97;4.23;;;15.40;97.30;;;;;;4979773;28;20939;-85
2021/08/30 01:10:48;;;;;;;7.90;4.10;;;15.40;97.30;;;;;;4983474;28;20427;-87
2021/08/30 01:13:22;;;;;;;6.90;4.60;;;15.40;97.30;;;;;;5000025;28;20439;-89
2021/08/30 01:15:48;;;;;;;13.00;5.40;;;15.40;97.30;;;;;;5000568;28;20427;-86
2021/08/30 01:18:23;;;;;;;10.63;4.97;;;15.30;97.30;;;;;;4985184;28;20824;-87
2021/08/30 01:20:57;;;;;;;15.03;5.67;;;15.30;97.30;;;;;;4980840;28;20191;-88
2021/08/30 01:23:24;;;;;;;11.50;6.00;;;15.30;97.30;;;;;;4979953;28;20432;-89
2021/08/30 01:25:51;;;;;;;17.43;5.50;;;15.30;97.30;;;;;;4979866;28;20412;-87
2021/08/30 01:28:20;;;;;;;11.33;5.40;;;15.30;97.30;;;;;;4991461;28;20419;-87
2021/08/30 01:30:49;;;;;;;9.20;5.03;;;15.30;97.30;;;;;;4980004;28;20429;-88
2021/08/30 01:33:16;;;;;;;9.40;5.27;;;15.30;97.30;;;;;;4997831;28;20475;-87
2021/08/30 01:35:41;;;;;;;9.17;5.10;;;15.30;97.30;;;;;;4978683;28;20544;-87
2021/08/30 01:38:08;;;;;;;11.90;4.80;;;15.30;97.30;;;;;;4984802;28;20528;-87
2021/08/30 01:40:35;;;;;;;9.53;4.40;;;15.30;97.30;;;;;;4998385;28;20212;-87
2021/08/30 01:43:01;;;;;;;5.50;3.93;;;15.30;97.30;;;;;;5016205;28;20424;-88
2021/08/30 01:45:30;;;;;;;5.60;4.03;;;15.30;97.30;;;;;;4995915;28;20938;-87
2021/08/30 01:47:59;;;;;;;4.67;3.47;;;15.20;97.30;;;;;;4978983;28;20505;-86
2021/08/30 01:50:26;;;;;;;5.20;3.00;;;15.20;97.30;;;;;;4998679;28;20424;-87
2021/08/30 01:52:53;;;;;;;6.63;3.50;;;15.20;97.30;;;;;;4999155;28;20479;-87
2021/08/30 01:55:38;;;;;;;4.87;3.20;;;15.20;97.30;;;;;;5014834;28;20902;-87
2021/08/30 02:00:52;;;;;;;5.03;2.87;;;15.20;97.30;;;;;;4996478;28;20481;-87
2021/08/30 02:03:20;;;;;;;3.50;2.60;;;15.20;97.30;;;;;;4979228;28;20447;-87
2021/08/30 02:06:07;;;;;;;5.20;3.13;;;15.20;97.30;;;;;;4979847;28;20417;-88
2021/08/30 02:08:34;;;;;;;5.90;3.40;;;15.20;97.30;;;;;;4978272;28;20916;-87
2021/08/30 02:11:05;;;;;;;10.87;3.50;;;15.20;97.30;;;;;;4978101;28;20476;-86
2021/08/30 02:13:31;;;;;;;5.50;3.80;;;15.20;97.30;;;;;;4996088;28;20939;-87
2021/08/30 02:16:00;;;;;;;8.87;3.97;;;15.20;97.30;;;;;;4980600;28;20935;-87
2021/08/30 02:18:28;;;;;;;5.27;3.57;;;15.20;97.30;;;;;;4998135;28;20460;-87
2021/08/30 02:21:20;;;;;;;5.93;4.23;;;15.20;97.30;;;;;;4997862;28;20478;-87
2021/08/30 02:24:10;;;;;;;6.93;3.97;;;15.20;97.30;;;;;;4998092;28;20428;-87
2021/08/30 02:27:06;;;;;;;7.33;4.23;;;15.20;97.30;;;;;;4997430;28;20423;-88
2021/08/30 02:30:06;;;;;;;5.97;3.87;;;15.20;97.30;;;;;;4993537;28;20435;-87
2021/08/30 02:32:33;;;;;;;5.87;3.80;;;15.20;97.30;;;;;;4958569;28;20477;-87
2021/08/30 02:35:02;;;;;;;5.80;3.53;;;15.20;97.30;;;;;;4961562;28;20398;-87
2021/08/30 02:37:33;;;;;;;5.60;3.60;;;15.20;97.30;;;;;;4965594;28;20480;-88
2021/08/30 02:40:00;;;;;;;5.23;3.33;;;15.20;97.30;;;;;;4997293;28;20463;-88
2021/08/30 02:42:28;;;;;;;5.63;3.27;;;15.10;97.30;;;;;;4980661;28;20409;-88
2021/08/30 02:44:54;;;;;;;6.63;4.40;;;15.20;97.30;;;;;;4997648;28;20405;-89
2021/08/30 02:47:21;;;;;;;4.13;2.77;;;15.20;97.30;;;;;;4996527;28;20413;-86
2021/08/30 02:49:47;;;;;;;4.53;3.00;;;15.20;97.30;;;;;;4966834;28;20443;-85
2021/08/30 02:52:19;;;;;;;3.20;2.60;;;15.10;97.30;;;;;;4979170;28;20800;-85
2021/08/30 02:54:46;;;;;;;2.90;2.20;;;15.10;97.30;;;;;;4979470;28;20182;-85
2021/08/30 02:57:12;;;;;;;3.43;2.30;;;15.10;97.30;;;;;;4996232;28;20472;-86
2021/08/30 02:59:38;;;;;;;5.47;2.67;;;15.10;97.30;;;;;;4978997;28;20461;-85
2021/08/30 03:02:05;;;;;;;3.70;2.50;;;15.10;97.30;;;;;;4979382;28;20531;-86
2021/08/30 03:04:31;;;;;;;5.73;2.53;;;15.00;97.30;;;;;;4979024;28;20444;-85
2021/08/30 03:06:59;;;;;;;4.40;2.47;;;15.00;97.30;;;;;;4978924;28;20491;-85
2021/08/30 03:09:25;;;;;;;4.03;2.70;;;15.00;97.30;;;;;;4979421;28;20448;-86
2021/08/30 03:11:54;;;;;;;6.63;4.03;;;15.00;97.30;;;;;;4978304;28;20806;-85
2021/08/30 03:14:25;;;;;;;5.80;2.97;;;15.00;97.30;;;;;;4985542;28;20267;-85
2021/08/30 03:16:56;;;;;;;3.40;2.60;;;15.00;97.30;;;;;;4996866;28;20456;-85
2021/08/30 03:19:23;;;;;;;4.33;2.50;;;15.00;97.30;;;;;;4997452;28;20416;-85
2021/08/30 03:21:50;;;;;;;4.07;3.17;;;15.00;97.30;;;;;;4996045;28;20416;-85
2021/08/30 03:24:19;;;;;;;3.37;2.37;;;15.00;97.30;;;;;;4977267;28;20494;-85
2021/08/30 03:26:46;;;;;;;4.30;3.00;;;14.90;97.30;;;;;;4977531;28;20425;-85
2021/08/30 03:29:12;;;;;;;3.80;2.53;;;14.90;97.30;;;;;;4977330;28;20409;-87
2021/08/30 03:31:38;;;;;;;5.47;2.87;;;14.90;97.30;;;;;;4977245;28;20421;-84
2021/08/30 03:34:05;;;;;;;4.17;2.67;;;14.90;97.30;;;;;;4979590;28;20233;-85
2021/08/30 03:36:31;;;;;;;5.00;2.87;;;14.80;97.30;;;;;;4997634;28;20420;-87
2021/08/30 03:38:58;;;;;;;4.00;2.70;;;14.80;97.30;;;;;;4997737;28;20789;-85
2021/08/30 03:41:24;;;;;;;6.20;2.80;;;14.80;97.30;;;;;;4997409;28;20825;-84
2021/08/30 03:43:51;;;;;;;5.13;2.70;;;14.80;97.30;;;;;;4994266;28;20503;-85
2021/08/30 03:46:16;;;;;;;3.80;2.50;;;14.80;97.30;;;;;;4977567;28;20943;-86
2021/08/30 03:48:43;;;;;;;4.00;2.53;;;14.80;97.30;;;;;;4994887;28;20424;-85
2021/08/30 03:51:10;;;;;;;4.17;2.80;;;14.80;97.30;;;;;;4976925;28;20188;-85
2021/08/30 03:53:36;;;;;;;3.40;2.57;;;14.70;97.30;;;;;;4976787;28;20443;-87
2021/08/30 03:56:04;;;;;;;3.63;2.23;;;14.80;97.30;;;;;;4976373;28;20433;-85
2021/08/30 03:58:31;;;;;;;3.87;2.83;;;14.70;97.30;;;;;;4975942;28;20448;-86
2021/08/30 04:01:00;;;;;;;3.30;2.20;;;14.70;97.30;;;;;;4976663;28;20413;-85
2021/08/30 04:03:26;;;;;;;5.20;2.40;;;14.70;97.30;;;;;;4976518;28;20519;-85
2021/08/30 04:05:53;;;;;;;5.07;2.67;;;14.70;97.30;;;;;;4976605;28;20461;-86
2021/08/30 04:08:18;;;;;;;4.50;2.00;;;14.70;97.30;;;;;;4977081;28;20178;-86
2021/08/30 04:10:45;;;;;;;4.80;2.13;;;14.70;97.30;;;;;;4994521;28;20415;-85
2021/08/30 04:13:10;;;;;;;3.30;2.43;;;14.70;97.30;;;;;;4995118;28;20284;-86
2021/08/30 04:15:36;;;;;;;2.80;1.93;;;14.70;97.30;;;;;;4977091;28;20517;-85
2021/08/30 04:18:01;;;;;;;3.43;2.43;;;14.70;97.30;;;;;;4998207;28;20189;-85
2021/08/30 04:20:27;;;;;;;4.13;2.40;;;14.70;97.30;;;;;;4996546;28;20663;-86
2021/08/30 04:22:53;;;;;;;2.70;2.20;;;14.70;97.30;;;;;;4996297;28;20197;-85
2021/08/30 04:25:18;;;;;;;2.87;2.30;;;14.70;97.30;;;;;;4996658;28;20177;-85
2021/08/30 04:27:44;;;;;;;3.00;2.40;;;14.70;97.30;;;;;;4996686;28;20549;-85
2021/08/30 04:30:10;;;;;;;3.20;2.30;;;14.70;97.30;;;;;;4992213;28;20181;-85
2021/08/30 04:32:37;;;;;;;4.10;2.43;;;14.70;97.30;;;;;;4975545;28;20228;-85
2021/08/30 04:35:05;;;;;;;5.30;2.10;;;14.70;97.30;;;;;;4993474;28;20422;-85
2021/08/30 04:37:31;;;;;;;3.60;2.37;;;14.60;97.30;;;;;;4976393;28;20464;-85
2021/08/30 04:39:57;;;;;;;3.60;2.57;;;14.60;97.30;;;;;;4976636;28;20428;-84
2021/08/30 04:42:22;;;;;;;3.13;2.33;;;14.60;97.30;;;;;;4976493;28;20245;-85
2021/08/30 04:44:49;;;;;;;3.80;2.40;;;14.60;97.30;;;;;;4977366;28;20504;-85
2021/08/30 04:47:16;;;;;;;5.17;2.90;;;14.60;97.30;;;;;;4977417;28;20182;-86
2021/08/30 04:49:42;;;;;;;6.73;2.10;;;14.60;97.30;;;;;;4984313;28;20982;-85
2021/08/30 04:52:07;;;;;;;5.03;2.03;;;14.60;97.30;;;;;;4985892;28;20432;-86
2021/08/30 04:54:33;;;;;;;4.03;2.97;;;14.70;97.30;;;;;;4987556;28;20181;-85
2021/08/30 04:56:58;;;;;;;4.33;3.47;;;14.70;97.30;;;;;;4976633;28;20426;-85
2021/08/30 04:59:24;;;;;;;2.53;2.10;;;14.70;97.30;;;;;;4976884;28;20212;-86
2021/08/30 05:01:49;;;;;;;4.00;2.53;;;14.70;97.30;;;;;;4993833;28;20300;-86
2021/08/30 05:04:15;;;;;;;3.17;2.40;;;14.70;97.30;;;;;;4978837;28;20204;-86
2021/08/30 05:06:40;;;;;;;3.00;2.67;;;14.70;97.30;;;;;;4979150;28;20233;-87
2021/08/30 05:09:06;;;;;;;4.03;2.30;;;14.80;97.30;;;;;;4979127;28;20872;-86
2021/08/30 05:11:31;;;;;;;5.40;2.73;;;14.80;97.30;;;;;;4979422;28;20178;-86
2021/08/30 05:13:59;;;;;;;4.07;2.90;;;14.80;97.30;;;;;;4979438;28;20305;-87
2021/08/30 05:16:25;;;;;;;5.37;3.20;;;14.80;97.30;;;;;;4979745;28;20232;-86
2021/08/30 05:18:50;;;;;;;5.00;2.83;;;14.80;97.30;;;;;;4979727;28;20464;-86
2021/08/30 05:21:15;;;;;;;4.03;2.70;;;14.80;97.30;;;;;;4980352;28;20233;-87
2021/08/30 05:23:41;;;;;;;5.63;3.50;;;14.80;97.30;;;;;;4980670;28;20194;-86
2021/08/30 05:26:07;;;;;;;8.33;4.30;;;14.80;97.30;;;;;;4980246;28;20217;-86
2021/08/30 05:28:32;;;;;;;5.80;3.53;;;14.80;97.30;;;;;;4980436;28;20608;-86
2021/08/30 05:30:59;;;;;;;8.47;4.70;;;14.80;97.30;;;;;;4979426;28;20203;-86
2021/08/30 05:33:24;;;;;;;7.43;4.53;;;14.90;97.30;;;;;;4987340;28;20568;-87
2021/08/30 05:35:50;;;;;;;7.33;4.07;;;14.90;97.30;;;;;;4987386;28;20418;-87
2021/08/30 05:38:15;;;;;;;9.43;4.77;;;14.90;97.30;;;;;;4977701;28;20202;-86
2021/08/30 05:40:41;;;;;;;7.13;4.13;;;14.90;97.30;;;;;;4993741;28;20180;-87
2021/08/30 05:43:06;;;;;;;10.10;4.73;;;14.90;97.30;;;;;;4981527;28;20804;-86
2021/08/30 05:45:33;;;;;;;8.20;4.47;;;14.90;97.30;;;;;;4983938;28;20170;-86
2021/08/30 05:47:59;;;;;;;8.60;4.53;;;15.00;97.30;;;;;;4991275;28;20185;-86
2021/08/30 05:50:24;;;;;;;6.90;4.63;;;15.00;97.30;;;;;;4994239;28;20789;-86
2021/08/30 05:52:50;;;;;;;8.00;4.63;;;15.00;97.30;;;;;;4987594;28;20193;-86
2021/08/30 05:55:16;;;;;;;8.13;4.47;;;15.00;97.30;;;;;;4989594;28;20190;-86
2021/08/30 05:57:42;;;;;;;7.87;4.27;;;15.10;97.30;;;;;;4976468;28;20226;-86
2021/08/30 06:00:09;;;;;;;7.40;3.90;;;15.10;97.30;;;;;;4990903;28;20457;-88
2021/08/30 06:02:34;;;;;;;11.10;4.13;;;15.10;97.30;;;;;;4978775;28;20194;-88
2021/08/30 06:05:00;;;;;;;7.60;4.50;;;15.10;97.30;;;;;;4995278;28;20444;-85
2021/08/30 06:07:25;;;;;;;7.37;4.27;;;15.10;97.30;;;;;;4982188;28;20302;-85
2021/08/30 06:09:51;;;;;;;8.10;4.73;;;15.10;97.30;;;;;;4975850;28;20277;-86
2021/08/30 06:12:16;;;;;;;7.97;4.40;;;15.20;97.30;;;;;;4985628;28;20174;-86
2021/08/30 06:14:42;;;;;;;6.83;3.90;;;15.30;97.30;;;;;;4990457;28;20181;-86
2021/08/30 06:17:08;;;;;;;8.17;4.70;;;15.30;97.30;;;;;;4982032;28;20202;-86
2021/08/30 06:19:33;;;;;;;9.30;4.33;;;15.30;97.30;;;;;;4990788;28;20188;-87
2021/08/30 06:21:59;;;;;;;10.33;5.30;;;15.40;97.30;;;;;;4984990;28;20175;-87
2021/08/30 06:24:25;;;;;;;6.83;4.30;;;15.50;97.30;;;;;;4981207;28;20334;-88
2021/08/30 06:26:50;;;;;;;7.43;4.80;;;15.60;97.30;;;;;;4992282;28;20682;-88
2021/08/30 06:29:16;;;;;;;7.83;4.60;;;15.60;97.30;;;;;;4981051;28;20180;-87
2021/08/30 06:31:41;;;;;;;8.33;4.17;;;15.70;97.30;;;;;;4984081;28;20174;-86
2021/08/30 06:34:07;;;;;;;10.63;5.30;;;15.70;97.30;;;;;;4995060;28;20235;-86
2021/08/30 06:36:33;;;;;;;11.30;5.13;;;15.80;97.30;;;;;;4993670;28;20204;-86
2021/08/30 06:39:00;;;;;;;7.70;4.60;;;15.80;97.30;;;;;;4975907;28;20210;-86
2021/08/30 06:41:26;;;;;;;10.67;5.90;;;15.90;97.30;;;;;;4978498;28;20206;-87
2021/08/30 06:43:52;;;;;;;17.60;5.77;;;15.90;97.30;;;;;;4987698;28;20449;-85
2021/08/30 06:46:17;;;;;;;10.20;5.40;;;15.90;97.30;;;;;;4976293;28;20410;-86
2021/08/30 06:48:43;;;;;;;6.00;3.73;;;16.00;97.30;;;;;;4989214;28;20189;-85
2021/08/30 06:51:08;;;;;;;6.13;4.07;;;16.00;97.30;;;;;;4981295;28;20182;-86
2021/08/30 06:53:34;;;;;;;6.57;3.57;;;16.00;97.30;;;;;;4981872;28;20202;-87
2021/08/30 06:55:59;;;;;;;10.17;4.07;;;16.00;97.30;;;;;;4984167;28;20186;-87
2021/08/30 06:58:25;;;;;;;8.13;4.37;;;16.00;97.30;;;;;;4982073;28;20206;-87
2021/08/30 07:00:50;;;;;;;9.90;5.30;;;15.90;97.30;;;;;;4981778;28;20680;-87
2021/08/30 07:03:16;;;;;;;8.70;4.80;;;15.90;97.30;;;;;;4983851;28;20677;-87
2021/08/30 07:05:41;;;;;;;8.63;4.67;;;15.90;97.30;;;;;;4983054;28;20226;-87
2021/08/30 07:08:07;;;;;;;6.83;3.93;;;15.80;97.30;;;;;;4975268;28;20653;-87
2021/08/30 07:10:32;;;;;;;9.60;4.70;;;15.80;97.30;;;;;;4975252;28;20190;-86
2021/08/30 07:12:58;;;;;;;11.73;4.00;;;15.80;97.30;;;;;;4985486;28;20631;-86
2021/08/30 07:15:23;;;;;;;8.47;4.20;;;15.80;97.30;;;;;;4989757;28;20305;-87
2021/08/30 07:17:49;;;;;;;7.33;3.80;;;15.80;97.30;;;;;;4986185;28;20197;-87
2021/08/30 07:20:14;;;;;;;8.80;4.60;;;15.80;97.30;;;;;;4991392;28;20182;-86
2021/08/30 07:22:40;;;;;;;6.17;4.07;;;15.90;97.30;;;;;;4960170;28;20214;-86
2021/08/30 07:25:06;;;;;;;8.33;3.80;;;15.90;97.30;;;;;;4987823;28;20174;-87
2021/08/30 07:27:31;;;;;;;9.47;3.80;;;15.90;97.30;;;;;;4992429;28;20240;-87
2021/08/30 07:29:57;;;;;;;10.33;4.60;;;15.90;97.30;;;;;;4988123;28;20194;-87
2021/08/30 07:32:22;;;;;;;8.27;4.13;;;15.90;97.30;;;;;;4980995;28;20181;-87
2021/08/30 07:34:48;;;;;;;6.90;4.57;;;15.90;97.30;;;;;;5043326;23;20690;-84
2021/08/30 07:37:14;;;;;;;7.07;4.00;;;15.90;97.30;;;;;;5034880;28;20611;-84
2021/08/30 07:39:39;;;;;;;9.03;4.70;;;15.90;97.30;;;;;;5043879;28;20168;-83
2021/08/30 07:42:05;;;;;;;8.60;4.53;;;15.90;97.30;;;;;;5018302;28;20192;-84
2021/08/30 07:44:30;;;;;;;5.87;3.90;;;15.90;97.30;;;;;;5025471;28;20197;-84
2021/08/30 07:46:56;;;;;;;7.50;4.30;;;15.90;97.30;;;;;;5034728;28;20818;-84
2021/08/30 07:49:21;;;;;;;7.23;4.73;;;15.90;97.30;;;;;;5035942;28;20306;-84
2021/08/30 07:51:47;;;;;;;7.10;4.07;;;15.90;97.30;;;;;;5028036;28;20556;-84
2021/08/30 07:54:13;;;;;;;6.33;3.70;;;16.00;97.30;;;;;;5032985;28;20193;-83
2021/08/30 07:56:40;;;;;;;6.47;3.67;;;16.00;97.30;;;;;;5015233;28;20599;-84
2021/08/30 07:59:07;;;;;;;7.80;4.10;;;16.00;97.30;;;;;;5015170;28;20177;-84
2021/08/30 08:01:33;;;;;;;6.47;3.93;;;16.00;97.30;;;;;;5014680;28;20790;-83
2021/08/30 08:03:59;;;;;;;4.73;3.63;;;16.00;97.30;;;;;;5032460;28;20426;-83
2021/08/30 08:06:25;;;;;;;5.70;3.93;;;16.00;97.30;;;;;;5020628;28;20728;-83
2021/08/30 08:08:50;;;;;;;8.40;3.60;;;16.00;97.30;;;;;;5034638;28;20317;-83
2021/08/30 08:11:16;;;;;;;6.27;4.60;;;16.10;97.30;;;;;;5034779;28;20176;-83
2021/08/30 08:13:41;;;;;;;5.57;3.40;;;16.20;97.30;;;;;;5035275;28;20907;-83
2021/08/30 08:16:07;;;;;;;6.20;3.73;;;16.30;97.30;;;;;;5035837;28;20230;-83
2021/08/30 08:18:33;;;;;;;2.70;1.90;;;16.30;97.30;;;;;;5036205;28;20248;-83
2021/08/30 08:21:02;;;;;;;3.27;2.33;;;16.50;97.30;;;;;;5036101;28;20172;-84
2021/08/30 08:23:27;;;;;;;5.20;2.27;;;16.50;97.30;;;;;;5036109;28;20422;-82
2021/08/30 08:25:54;;;;;;;2.90;2.30;;;16.50;97.30;;;;;;5035597;28;20454;-84
2021/08/30 08:28:19;;;;;;;3.40;2.53;;;16.50;97.30;;;;;;5034512;28;20428;-84
2021/08/30 08:30:46;;;;;;;2.70;2.23;;;16.50;97.30;;;;;;5034619;28;20609;-84
2021/08/30 08:33:12;;;;;;;3.60;2.30;;;16.40;97.30;;;;;;5035635;28;20184;-84
2021/08/30 08:35:40;;;;;;;1.80;1.80;;;16.40;97.30;;;;;;5050682;28;20465;-83
2021/08/30 08:38:07;;;;;;;3.07;2.13;;;16.40;97.30;;;;;;5034737;28;20298;-84
2021/08/30 08:40:33;;;;;;;2.40;2.00;;;16.40;97.30;;;;;;5038318;28;20415;-84
2021/08/30 08:42:58;;;;;;;2.80;1.90;;;16.40;97.30;;;;;;5038484;28;20442;-83
2021/08/30 08:45:24;;;;;;;2.30;1.70;;;16.50;97.30;;;;;;5055287;28;20195;-84
2021/08/30 08:47:49;;;;;;;2.67;2.23;;;16.50;97.30;;;;;;5056725;28;20585;-83
2021/08/30 08:50:19;;;;;;;3.00;2.20;;;16.60;97.30;;;;;;5039061;28;20179;-83
2021/08/30 08:52:45;;;;;;;5.03;2.23;;;16.70;97.30;;;;;;5039960;28;20180;-84
2021/08/30 08:55:13;;;;;;;3.10;2.40;;;16.80;97.30;;;;;;5057161;28;20798;-84
2021/08/30 08:57:39;;;;;;;2.80;2.40;;;17.00;97.30;;;;;;5036253;28;20184;-84
2021/08/30 09:00:13;;;;;;;3.03;2.30;;;17.10;97.30;;;;;;5034709;28;20429;-83
2021/08/30 09:02:39;;;;;;;3.20;2.23;;;17.20;97.30;;;;;;5024952;28;20255;-84
2021/08/30 09:05:07;;;;;;;2.20;1.97;;;17.40;97.30;;;;;;5029478;28;20466;-84
2021/08/30 09:07:37;;;;;;;2.33;2.10;;;17.30;97.30;;;;;;5032187;28;20203;-83
2021/08/30 09:10:06;;;;;;;2.80;2.03;;;17.30;97.30;;;;;;5033031;28;20542;-83
2021/08/30 09:12:31;;;;;;;2.70;1.97;;;17.20;97.30;;;;;;5035640;28;20502;-83
2021/08/30 09:14:57;;;;;;;2.87;2.30;;;17.20;97.30;;;;;;5034142;28;20517;-83
2021/08/30 09:17:23;;;;;;;3.03;2.23;;;17.10;97.30;;;;;;5055512;28;20196;-82
2021/08/30 09:19:54;;;;;;;3.03;2.13;;;17.20;97.30;;;;;;5038310;28;20172;-84
2021/08/30 09:22:34;;;;;;;3.93;2.33;;;17.20;97.30;;;;;;5039316;28;20175;-84
2021/08/30 09:25:08;;;;;;;2.50;2.17;;;17.30;97.30;;;;;;5038904;28;20868;-84
2021/08/30 09:27:40;;;;;;;3.00;2.30;;;17.40;97.30;;;;;;5038802;28;20410;-83
2021/08/30 09:30:13;;;;;;;3.80;2.77;;;17.40;97.30;;;;;;5055511;28;20518;-83
2021/08/30 09:32:41;;;;;;;3.50;2.70;;;17.50;97.30;;;;;;5037778;28;20406;-84
2021/08/30 09:35:08;;;;;;;4.03;2.83;;;17.60;97.30;;;;;;5034012;28;20477;-84
2021/08/30 09:37:37;;;;;;;3.33;2.53;;;17.70;97.30;;;;;;5034404;28;20487;-84
2021/08/30 09:40:24;;;;;;;4.30;2.67;;;17.90;97.30;;;;;;5022954;28;20427;-83
2021/08/30 09:42:52;;;;;;;4.00;2.70;;;18.00;97.30;;;;;;5024884;28;20435;-84
2021/08/30 09:45:20;;;;;;;4.17;2.93;;;18.10;97.30;;;;;;5015933;28;20432;-84
2021/08/30 09:47:51;;;;;;;8.23;2.80;;;18.10;97.30;;;;;;5034896;28;20628;-83
2021/08/30 09:50:18;;;;;;;4.10;2.80;;;18.10;97.30;;;;;;5033275;28;20418;-83
2021/08/30 09:52:43;;;;;;;3.50;2.70;;;18.20;97.30;;;;;;5042129;28;20450;-84
2021/08/30 09:55:10;;;;;;;4.20;3.10;;;18.20;97.30;;;;;;5048815;28;20439;-83
2021/08/30 09:57:37;;;;;;;4.20;2.97;;;18.20;97.30;;;;;;5048158;28;20205;-84
2021/08/30 10:00:05;;;;;;;5.80;3.27;;;18.20;97.30;;;;;;5047817;28;20446;-84
2021/08/30 10:02:31;;;;;;;6.27;3.00;;;18.20;97.30;;;;;;5045804;28;20419;-84
2021/08/30 10:04:59;;;;;;;4.47;3.20;;;18.30;97.30;;;;;;5048920;28;20442;-83
2021/08/30 10:07:28;;;;;;;3.90;2.97;;;18.30;97.30;;;;;;5041371;28;20231;-83
2021/08/30 10:09:55;;;;;;;4.30;2.80;;;18.30;97.30;;;;;;5035813;28;20514;-84
2021/08/30 10:12:21;;;;;;;3.13;2.47;;;18.30;97.30;;;;;;5035546;28;20431;-83
2021/08/30 10:14:48;;;;;;;4.10;2.90;;;18.30;97.30;;;;;;5033399;28;20806;-82
2021/08/30 10:17:17;;;;;;;5.40;2.90;;;18.20;97.30;;;;;;5033366;28;20204;-82
2021/08/30 10:19:42;;;;;;;4.63;3.43;;;18.20;97.30;;;;;;5033362;28;20411;-82
2021/08/30 10:22:17;;;;;;;4.60;3.00;;;18.20;97.30;;;;;;5033504;28;20450;-83
2021/08/30 10:24:44;;;;;;;5.57;3.50;;;18.20;97.30;;;;;;5034472;28;20192;-83
2021/08/30 10:27:10;;;;;;;4.50;3.53;;;18.20;97.30;;;;;;5033674;28;20929;-83
2021/08/30 10:29:38;;;;;;;6.23;4.00;;;18.20;97.30;;;;;;5035912;28;20418;-81
2021/08/30 10:32:05;;;;;;;5.20;3.20;;;18.10;97.30;;;;;;5035577;28;20408;-83
2021/08/30 10:34:32;;;;;;;5.27;3.80;;;18.10;97.30;;;;;;5043017;28;20470;-82
2021/08/30 10:37:00;;;;;;;6.67;4.03;;;18.00;97.30;;;;;;5055024;28;20508;-83
2021/08/30 10:39:42;;;;;;;4.43;3.40;;;18.00;97.30;;;;;;5036809;28;20414;-83
2021/08/30 10:42:15;;;;;;;6.10;4.00;;;18.00;97.30;;;;;;5036304;28;20941;-82
2021/08/30 10:45:04;;;;;;;7.60;4.50;;;18.00;97.30;;;;;;5036127;28;20980;-83
2021/08/30 10:47:34;;;;;;;6.87;4.33;;;18.00;97.30;;;;;;5036461;28;20415;-82
2021/08/30 10:50:00;;;;;;;6.23;4.10;;;18.00;97.30;;;;;;5034723;28;20419;-83
2021/08/30 10:52:40;;;;;;;8.90;5.17;;;18.00;97.30;;;;;;5034308;28;20509;-83
2021/08/30 10:55:20;;;;;;;10.27;5.83;;;17.90;97.30;;;;;;5022149;28;20206;-83
2021/08/30 10:57:51;;;;;;;8.83;5.57;;;17.80;97.30;;;;;;5022984;28;20799;-82
2021/08/30 11:00:28;;;;;;;10.43;5.67;;;17.70;97.30;;;;;;5042760;28;20420;-83
2021/08/30 11:02:53;;;;;;;8.20;4.23;;;17.60;97.30;;;;;;5024168;28;20454;-85
2021/08/30 11:05:25;;;;;;;7.93;4.50;;;17.50;97.30;;;;;;5038587;28;20532;-83
2021/08/30 11:07:52;;;;;;;7.10;4.07;;;17.40;97.30;;;;;;5025359;28;20180;-83
2021/08/30 11:10:19;;;;;;;5.00;3.17;;;17.40;97.30;;;;;;5021616;28;20428;-82
2021/08/30 11:12:45;;;;;;;3.80;2.60;;;17.40;97.30;;;;;;5044833;28;20429;-82
2021/08/30 11:15:11;;;;;;;4.20;2.70;;;17.30;97.30;;;;;;5027943;28;20525;-82
2021/08/30 11:17:36;;;;;;;4.37;2.97;;;17.30;97.30;;;;;;5029748;28;20192;-82
2021/08/30 11:20:04;;;;;;;3.33;2.73;;;17.20;97.30;;;;;;5036333;28;20176;-82
2021/08/30 11:22:30;;;;;;;3.90;2.70;;;17.20;97.30;;;;;;5021446;28;20173;-82
2021/08/30 11:24:58;;;;;;;4.23;2.80;;;17.20;97.30;;;;;;5024465;28;20522;-83
2021/08/30 11:27:27;;;;;;;6.20;2.93;;;17.20;97.30;;;;;;5028870;28;20650;-83
2021/08/30 11:29:55;;;;;;;3.40;2.50;;;17.30;97.30;;;;;;5018549;28;20426;-84
2021/08/30 11:32:24;;;;;;;4.60;2.60;;;17.30;97.30;;;;;;5023718;28;20419;-84
2021/08/30 11:34:50;;;;;;;3.20;2.50;;;17.40;97.30;;;;;;5036722;28;20461;-84
2021/08/30 11:37:19;;;;;;;3.63;2.80;;;17.40;97.30;;;;;;5034329;28;20456;-84
2021/08/30 11:39:49;;;;;;;3.03;2.47;;;17.40;97.30;;;;;;5025873;28;20404;-84
2021/08/30 11:42:18;;;;;;;3.57;2.80;;;17.40;97.30;;;;;;5028477;28;20489;-84
2021/08/30 11:44:44;;;;;;;4.73;2.37;;;17.40;97.30;;;;;;5032971;28;20430;-83
2021/08/30 11:47:15;;;;;;;3.37;2.50;;;17.50;97.30;;;;;;5027192;28;20952;-84
2021/08/30 11:49:46;;;;;;;4.17;2.80;;;17.50;97.30;;;;;;5035625;28;20421;-84
2021/08/30 11:52:14;;;;;;;3.30;2.57;;;17.50;97.30;;;;;;5022872;28;20507;-84
2021/08/30 11:54:42;;;;;;;3.30;2.50;;;17.50;97.30;;;;;;5016265;28;20505;-84
2021/08/30 11:57:11;;;;;;;3.90;2.60;;;17.50;97.30;;;;;;5028414;28;20422;-84
2021/08/30 11:59:49;;;;;;;4.87;2.43;;;17.50;97.30;;;;;;5036181;28;20425;-84
2021/08/30 12:02:15;;;;;;;5.23;2.83;;;17.60;97.30;;;;;;5031204;28;20477;-84
2021/08/30 12:04:42;;;;;;;2.50;2.23;;;17.60;97.30;;;;;;5032568;28;20430;-84
2021/08/30 12:07:17;;;;;;;3.47;2.30;;;17.50;97.30;;;;;;5048020;28;20426;-84
2021/08/30 12:09:49;;;;;;;2.23;2.00;;;17.50;97.30;;;;;;5034762;28;20410;-84
2021/08/30 12:12:27;;;;;;;2.70;2.20;;;17.50;97.30;;;;;;5050930;28;20438;-84
2021/08/30 12:14:58;;;;;;;2.67;2.07;;;17.60;97.30;;;;;;5028594;28;20957;-85
2021/08/30 12:17:25;;;;;;;4.03;1.77;;;17.60;97.30;;;;;;5034891;28;20506;-84
2021/08/30 12:20:07;;;;;;;3.80;2.27;;;17.60;97.30;;;;;;5039993;28;20913;-84
2021/08/30 12:22:35;;;;;;;4.57;2.10;;;17.60;97.30;;;;;;5039092;28;20465;-84
2021/08/30 12:25:08;;;;;;;4.33;2.30;;;17.50;97.30;;;;;;5039670;28;20474;-84
2021/08/30 12:27:36;;;;;;;5.13;2.07;;;17.50;97.30;;;;;;5023267;28;20517;-84
2021/08/30 12:30:26;;;;;;;3.03;2.27;;;17.50;97.30;;;;;;5026498;28;20419;-84
2021/08/30 12:33:06;;;;;;;2.60;2.00;;;17.50;97.30;;;;;;5055816;28;20565;-84
2021/08/30 12:35:40;;;;;;;3.47;2.40;;;17.50;97.30;;;;;;5038074;28;20884;-84
2021/08/30 12:38:12;;;;;;;2.33;2.13;;;17.60;97.30;;;;;;5018515;28;20469;-84
2021/08/30 12:40:43;;;;;;;4.63;2.60;;;17.60;97.30;;;;;;5033663;28;20494;-84
2021/08/30 12:43:08;;;;;;;3.63;2.20;;;17.60;97.30;;;;;;5039105;28;20441;-84
2021/08/30 12:45:34;;;;;;;3.47;2.40;;;17.70;97.30;;;;;;5039577;28;21170;-84
2021/08/30 12:48:01;;;;;;;2.80;2.07;;;17.70;97.30;;;;;;5039960;28;20662;-84
2021/08/30 12:50:27;;;;;;;4.27;2.90;;;17.60;97.30;;;;;;5038118;28;20441;-83
2021/08/30 12:52:53;;;;;;;3.97;2.50;;;17.60;97.30;;;;;;5038910;28;20591;-83